EDDHEDHI

Guest
Details From EDDH - Hamburg
To EDHI - Hamburg Finkenwerder
Flight Number -
Tags decoded
Created
Modified
Stats Distance 84 nm / 155 km
Max Altitude 0 ft / 0 m
Waypoints 5
Social Downloads 0
Likes 0
Share VATSIM

Download

Looking for another format? Having issues loading an existing format? Contact us
Advertisement - Login to hide

Notes

Requested: EDDH LBE09 ESTAD HAM28 MABAS GESTO VALKI OSTOR EDHI Unmatched points: LBE09 HAM28

Route

EDDH MABAS GESTO VALKI EDHI

ID Type Via Altitude Latitude Longitude Leg Dist Tot Dist Heading (true) Name
O EDDH APT - 0 ft / 0 m 53.63367˚ 9.98524˚ - 0 nm - Hamburg
MABAS FIX - 0 ft / 0 m 53.52056˚ 10.28083˚ 12 nm 12 nm 123° / 123° -
GESTO FIX - 0 ft / 0 m 53.17500˚ 10.08361˚ 21 nm 34 nm 199° / 199° -
VALKI FIX - 0 ft / 0 m 53.13528˚ 9.47361˚ 22 nm 56 nm 264° / 264° -
O EDHI APT - 0 ft / 0 m 53.53591˚ 9.83707˚ 27 nm 83 nm 28° / 29° Hamburg Finkenwerder

Altitude Profile

Advertisement - Login to hide

EDDH

Details ICAO EDDH (HAM)
Name Hamburg
Region Germany - Civil
Timezone Europe/Berlin (UTC+1.0)
Stats Elevation 53 ft / 16 m (AMSL)
Location 53.633665° 9.985235°
Runways 2
Magnetic Variation 2.800° E

METAR

EDDH 201620Z 16005KT 9000 BKN013 BKN024 03/00 Q1001 R88/CLRD// NOSIG

Decode

TAF

TAF EDDH 201100Z 2012/2118 21010KT 9000 BKN012 BECMG 2012/2015 BKN015 BECMG 2016/2019 14005KT 4500 BR BKN008 TEMPO 2021/2110 2500 -SN BKN004 BECMG 2109/2112 9999 BKN020

Decode

Departure Runways

ID Width Length Bearing (true) Bearing (mag) Surface Threshold Offset Overrun Length
05 151 ft / 46 m 10,647 ft / 3,245 m 50.18° 47.38° Asphalt 978 ft / 298 m 194 ft / 59 m
15 151 ft / 46 m 12,013 ft / 3,662 m 152.89° 150.09° Asphalt 0 ft / 0 m 194 ft / 59 m
23 151 ft / 46 m 10,647 ft / 3,245 m 230.22° 227.42° Asphalt 509 ft / 155 m 240 ft / 73 m
33 151 ft / 46 m 12,013 ft / 3,662 m 332.91° 330.11° Asphalt 1,463 ft / 446 m 164 ft / 50 m

EDHI

Details ICAO EDHI (XFW)
Name Hamburg Finkenwerder
Region Germany - Civil
Timezone Europe/Berlin (UTC+1.0)
Stats Elevation 21 ft / 6 m (AMSL)
Location 53.535910° 9.837071°
Runways 1
Magnetic Variation 2.752° E

METAR

EDHI 201620Z 12003KT 7000 BKN037 02/01 Q1001

Decode

TAF

Not found

Destination Runways

ID Width Length Bearing (true) Bearing (mag) Surface Threshold Offset Overrun Length
05 148 ft / 45 m 8,628 ft / 2,630 m 51.57° 48.82° Asphalt 341 ft / 104 m 341 ft / 104 m
23 148 ft / 45 m 8,628 ft / 2,630 m 231.59° 228.84° Asphalt 2,474 ft / 754 m 328 ft / 100 m

Approach Navaids

Runway Type Ident Frequency Range Bearing (true) Bearing (mag) Slope Elevation
05 Localiser IHFE 110.70 MHz 18 nm / 33 km 51.50° 48.75° - 15 ft / 5 m (AMSL)
05 Glidescope IHFE 110.70 MHz 10 nm / 19 km 51.58° 48.83° 3.10° 21 ft / 6 m (AMSL)
23 Localiser HFW 108.50 MHz 18 nm / 33 km 231.80° 229.05° - 16 ft / 5 m (AMSL)
23 Glidescope HFW 108.50 MHz 10 nm / 19 km 231.58° 228.83° 3.00° 21 ft / 6 m (AMSL)
23 DME HFW 108.50 MHz 18 nm / 33 km - - - 51 ft / 16 m (AMSL)

Popular Alternatives